createdAt,value
2018-04-24T00:00:32.552Z,98612.47
2018-04-24T00:03:00.045Z,98609.83
2018-04-24T00:05:27.526Z,98613.41
2018-04-24T00:07:55.083Z,98609.23
2018-04-24T00:10:22.572Z,98607.08
2018-04-24T00:12:50.049Z,98609.84
2018-04-24T00:15:17.583Z,98616.83
2018-04-24T00:17:45.050Z,98617.19
2018-04-24T00:20:12.552Z,98614.94
2018-04-24T00:22:40.049Z,98613.95
2018-04-24T00:25:07.555Z,98613.05
2018-04-24T00:27:35.024Z,98611.81
2018-04-24T00:30:02.515Z,98609.24
2018-04-24T00:32:30.020Z,98612.38
2018-04-24T00:34:57.500Z,98602.70
2018-04-24T00:37:24.988Z,98611.27
2018-04-24T00:39:52.464Z,98611.56
2018-04-24T00:42:19.947Z,98608.86
2018-04-24T00:44:47.436Z,98605.16
2018-04-24T00:47:14.920Z,98611.36
2018-04-24T00:49:42.411Z,98609.08
2018-04-24T00:52:09.928Z,98610.16
2018-04-24T00:54:37.413Z,98612.27
2018-04-24T00:57:04.968Z,98614.39
2018-04-24T00:59:32.443Z,98606.19
2018-04-24T01:02:00.109Z,98607.36
2018-04-24T01:04:27.675Z,98610.90
2018-04-24T01:06:55.251Z,98616.63
2018-04-24T01:09:22.717Z,98616.91
2018-04-24T01:11:50.179Z,98622.41
2018-04-24T01:14:17.667Z,98611.75
2018-04-24T01:16:45.138Z,98615.56
2018-04-24T01:19:12.602Z,98618.42
2018-04-24T01:21:40.106Z,98617.75
2018-04-24T01:24:07.633Z,98617.94
2018-04-24T01:26:35.113Z,98620.87
2018-04-24T01:29:02.604Z,98623.53
2018-04-24T01:31:30.105Z,98624.97
2018-04-24T01:33:57.608Z,98622.91
2018-04-24T01:36:25.098Z,98625.06
2018-04-24T01:38:52.583Z,98626.38
2018-04-24T01:41:20.048Z,98622.86
2018-04-24T01:43:47.542Z,98623.72
2018-04-24T01:46:15.020Z,98625.05
2018-04-24T01:48:42.683Z,98634.19
2018-04-24T01:51:10.176Z,98630.05
2018-04-24T01:53:37.671Z,98633.58
2018-04-24T01:56:05.155Z,98637.07
2018-04-24T01:58:32.634Z,98636.56
2018-04-24T02:01:00.114Z,98637.16
2018-04-24T02:03:27.905Z,98637.98
2018-04-24T02:05:55.466Z,98643.05
2018-04-24T02:08:22.957Z,98644.70
2018-04-24T02:10:50.471Z,98640.39
2018-04-24T02:13:18.101Z,98645.30
2018-04-24T02:15:45.587Z,98641.80
2018-04-24T02:18:13.050Z,98646.16
2018-04-24T02:20:40.527Z,98646.08
2018-04-24T02:23:08.039Z,98653.10
2018-04-24T02:25:35.562Z,98642.53
2018-04-24T02:28:03.050Z,98639.88
2018-04-24T02:30:30.572Z,98647.16
2018-04-24T02:32:58.049Z,98648.31
2018-04-24T02:35:25.524Z,98648.50
2018-04-24T02:37:52.994Z,98646.80
2018-04-24T02:40:20.591Z,98651.34
2018-04-24T02:42:47.986Z,98646.50
2018-04-24T02:45:15.467Z,98647.55
2018-04-24T02:47:42.965Z,98651.30
2018-04-24T02:50:10.484Z,98654.77
2018-04-24T02:52:38.028Z,98651.21
2018-04-24T02:55:05.516Z,98646.42
2018-04-24T02:57:33.085Z,98647.36
2018-04-24T03:00:00.598Z,98647.06
2018-04-24T03:02:28.069Z,98641.45
2018-04-24T03:04:55.540Z,98644.08
2018-04-24T03:07:23.034Z,98634.53
2018-04-24T03:09:50.512Z,98633.77
2018-04-24T03:12:17.975Z,98636.77
2018-04-24T03:14:45.453Z,98636.03
2018-04-24T03:17:12.910Z,98638.06
2018-04-24T03:19:40.400Z,98630.39
2018-04-24T03:22:07.882Z,98626.83
2018-04-24T03:24:35.358Z,98615.12
2018-04-24T03:27:02.841Z,98622.16
2018-04-24T03:29:30.679Z,98621.67
2018-04-24T03:31:58.151Z,98633.29
2018-04-24T03:34:25.804Z,98624.78
2018-04-24T03:36:53.294Z,98630.32
2018-04-24T03:39:20.778Z,98638.16
2018-04-24T03:41:48.392Z,98643.83
2018-04-24T03:44:15.870Z,98640.69
2018-04-24T03:46:43.353Z,98639.91
2018-04-24T03:49:10.830Z,98640.64
2018-04-24T03:51:38.335Z,98645.81
2018-04-24T03:54:05.816Z,98641.46
2018-04-24T03:56:33.302Z,98636.56
2018-04-24T03:59:00.797Z,98636.60
2018-04-24T04:01:28.278Z,98642.22
2018-04-24T04:03:55.738Z,98632.03
2018-04-24T04:06:23.228Z,98632.38
2018-04-24T04:08:50.695Z,98633.80
2018-04-24T04:11:18.302Z,98630.06
2018-04-24T04:13:45.784Z,98631.20
2018-04-24T04:16:13.259Z,98632.14
2018-04-24T04:18:52.537Z,98628.67
2018-04-24T04:21:31.825Z,98632.00
2018-04-24T04:24:12.032Z,98632.68
2018-04-24T04:26:39.500Z,98633.53
2018-04-24T04:29:07.021Z,98633.33
2018-04-24T04:31:34.505Z,98633.61
2018-04-24T04:34:02.002Z,98637.17
2018-04-24T04:36:29.478Z,98635.05
2018-04-24T04:38:56.945Z,98638.75
2018-04-24T04:41:24.494Z,98647.03
2018-04-24T04:43:51.941Z,98643.03
2018-04-24T04:46:19.707Z,98643.79
2018-04-24T04:48:47.176Z,98643.94
2018-04-24T04:51:14.646Z,98640.17
2018-04-24T04:53:42.099Z,98639.50
2018-04-24T04:56:10.126Z,98639.91
2018-04-24T04:58:37.711Z,98640.84
2018-04-24T05:01:05.211Z,98650.59
2018-04-24T05:03:32.689Z,98647.03
2018-04-24T05:06:00.252Z,98652.69
2018-04-24T05:08:27.875Z,98658.23
2018-04-24T05:10:55.359Z,98662.91
2018-04-24T05:13:22.827Z,98666.75
2018-04-24T05:15:51.818Z,98665.52
2018-04-24T05:18:19.300Z,98675.03
2018-04-24T05:20:46.787Z,98661.38
2018-04-24T05:23:14.260Z,98664.55
2018-04-24T05:25:41.732Z,98660.47
2018-04-24T05:28:09.378Z,98660.41
2018-04-24T05:30:37.052Z,98665.65
2018-04-24T05:33:04.569Z,98665.59
2018-04-24T05:35:32.151Z,98665.97
2018-04-24T05:37:59.664Z,98670.89
2018-04-24T05:40:27.303Z,98664.94
2018-04-24T05:42:54.832Z,98666.11
2018-04-24T05:45:22.439Z,98657.36
2018-04-24T05:47:49.945Z,98663.16
2018-04-24T05:50:17.423Z,98654.30
2018-04-24T05:52:44.902Z,98661.29
2018-04-24T05:55:12.381Z,98663.78
2018-04-24T05:57:39.939Z,98664.16
2018-04-24T06:00:07.397Z,98669.75
2018-04-24T06:02:34.868Z,98662.76
2018-04-24T06:05:02.362Z,98664.69
2018-04-24T06:07:29.830Z,98660.63
2018-04-24T06:09:57.312Z,98663.98
2018-04-24T06:12:24.784Z,98667.19
2018-04-24T06:14:52.276Z,98664.69
2018-04-24T06:17:19.801Z,98665.48
2018-04-24T06:19:47.294Z,98664.52
2018-04-24T06:22:14.785Z,98669.67
2018-04-24T06:24:42.255Z,98666.89
2018-04-24T06:27:09.750Z,98661.36
2018-04-24T06:29:37.235Z,98660.53
2018-04-24T06:32:04.718Z,98665.08
2018-04-24T06:34:32.185Z,98656.42
2018-04-24T06:36:59.685Z,98659.23
2018-04-24T06:39:27.171Z,98660.72
2018-04-24T06:41:54.691Z,98657.20
2018-04-24T06:44:22.177Z,98663.56
2018-04-24T06:46:49.699Z,98663.14
2018-04-24T06:49:17.181Z,98659.19
2018-04-24T06:51:44.678Z,98658.70
2018-04-24T06:54:12.197Z,98658.34
2018-04-24T06:56:39.681Z,98660.13
2018-04-24T06:59:07.173Z,98657.45
2018-04-24T07:01:34.650Z,98661.50
2018-04-24T07:04:02.149Z,98658.19
2018-04-24T07:06:29.662Z,98656.47
2018-04-24T07:08:57.125Z,98656.84
2018-04-24T07:11:24.604Z,98662.06
2018-04-24T07:13:52.357Z,98655.38
2018-04-24T07:16:19.845Z,98657.41
2018-04-24T07:18:47.333Z,98657.58
2018-04-24T07:21:14.875Z,98651.91
2018-04-24T07:23:42.468Z,98650.13
2018-04-24T07:26:09.980Z,98649.61
2018-04-24T07:28:37.557Z,98652.16
2018-04-24T07:31:05.107Z,98644.97
2018-04-24T07:33:32.659Z,98652.11
2018-04-24T07:36:00.195Z,98662.58
2018-04-24T07:38:27.715Z,98652.64
2018-04-24T07:40:55.186Z,98655.78
2018-04-24T07:43:22.652Z,98651.36
2018-04-24T07:45:50.122Z,98651.04
2018-04-24T07:48:17.680Z,98662.63
2018-04-24T07:50:45.178Z,98661.53
2018-04-24T07:53:12.775Z,98656.89
2018-04-24T07:55:40.367Z,98666.41
2018-04-24T07:58:08.066Z,98648.06
2018-04-24T08:00:35.553Z,98650.89
2018-04-24T08:03:03.207Z,98653.69
2018-04-24T08:05:30.750Z,98652.03
2018-04-24T08:07:58.224Z,98646.30
2018-04-24T08:10:25.727Z,98651.43
2018-04-24T08:12:53.463Z,98651.47
2018-04-24T08:15:20.940Z,98648.26
2018-04-24T08:17:48.426Z,98655.69
2018-04-24T08:20:15.895Z,98649.56
2018-04-24T08:22:43.436Z,98648.19
2018-04-24T08:25:10.917Z,98647.81
2018-04-24T08:27:38.468Z,98647.79
2018-04-24T08:30:05.956Z,98644.22
2018-04-24T08:32:33.475Z,98648.45
2018-04-24T08:35:00.952Z,98637.26
2018-04-24T08:37:29.084Z,98636.77
2018-04-24T08:39:56.603Z,98635.01
2018-04-24T08:42:24.319Z,98637.95
2018-04-24T08:44:51.793Z,98637.06
2018-04-24T08:47:19.309Z,98639.91
2018-04-24T08:49:46.795Z,98632.31
2018-04-24T08:52:14.273Z,98636.40
2018-04-24T08:54:41.760Z,98637.33
2018-04-24T08:57:10.508Z,98636.16
2018-04-24T08:59:37.998Z,98633.54
2018-04-24T09:02:06.574Z,98636.29
2018-04-24T09:04:34.150Z,98631.47
2018-04-24T09:07:03.709Z,98632.15
2018-04-24T09:09:31.246Z,98633.31
2018-04-24T09:11:58.844Z,98628.81
2018-04-24T09:14:26.351Z,98631.86
2018-04-24T09:16:53.830Z,98632.11
2018-04-24T09:19:21.300Z,98631.00
2018-04-24T09:21:48.799Z,98636.29
2018-04-24T09:24:16.288Z,98633.73
2018-04-24T09:26:43.784Z,98631.19
2018-04-24T09:29:11.488Z,98629.98
2018-04-24T09:31:43.914Z,98626.52
2018-04-24T09:34:11.410Z,98627.34
2018-04-24T09:36:38.904Z,98621.49
2018-04-24T09:39:06.402Z,98633.34
2018-04-24T09:41:33.906Z,98624.81
2018-04-24T09:44:01.465Z,98620.27
2018-04-24T09:46:28.921Z,98619.98
2018-04-24T09:48:56.477Z,98619.98
2018-04-24T09:51:24.028Z,98615.09
2018-04-24T09:53:51.708Z,98610.59
2018-04-24T09:56:19.190Z,98613.37
2018-04-24T09:58:46.663Z,98610.39
2018-04-24T10:01:14.127Z,98612.24
2018-04-24T10:03:41.599Z,98605.84
2018-04-24T10:06:09.065Z,98607.37
2018-04-24T10:08:36.555Z,98599.95
2018-04-24T10:11:04.049Z,98597.49
2018-04-24T10:13:31.656Z,98593.30
2018-04-24T10:15:59.125Z,98597.75
2018-04-24T10:18:26.611Z,98592.11
2018-04-24T10:20:54.072Z,98585.53
2018-04-24T10:23:21.651Z,98583.45
2018-04-24T10:25:49.137Z,98587.25
2018-04-24T10:28:16.622Z,98586.72
2018-04-24T10:30:44.121Z,98583.66
2018-04-24T10:33:11.617Z,98582.81
2018-04-24T10:35:39.263Z,98580.59
2018-04-24T10:38:06.756Z,98569.91
2018-04-24T10:40:34.256Z,98568.31
2018-04-24T10:43:01.756Z,98563.59
2018-04-24T10:45:29.275Z,98564.45
2018-04-24T10:47:56.741Z,98567.50
2018-04-24T10:50:24.298Z,98565.23
2018-04-24T10:52:51.857Z,98563.44
2018-04-24T10:55:19.390Z,98561.22
2018-04-24T10:57:48.974Z,98555.31
2018-04-24T11:00:16.490Z,98564.12
2018-04-24T11:02:44.098Z,98555.61
2018-04-24T11:05:11.577Z,98555.92
2018-04-24T11:07:39.070Z,98552.23
2018-04-24T11:10:06.554Z,98551.31
2018-04-24T11:12:34.021Z,98560.59
2018-04-24T11:15:01.569Z,98548.39
2018-04-24T11:17:29.028Z,98547.56
2018-04-24T11:19:56.501Z,98546.34
2018-04-24T11:22:24.014Z,98550.05
2018-04-24T11:24:51.498Z,98542.98
2018-04-24T11:27:19.093Z,98538.47
2018-04-24T11:29:46.582Z,98532.64
2018-04-24T11:32:14.221Z,98532.27
2018-04-24T11:34:41.685Z,98527.19
2018-04-24T11:37:09.185Z,98532.14
2018-04-24T11:39:36.672Z,98527.95
2018-04-24T11:42:04.134Z,98519.86
2018-04-24T11:44:31.628Z,98531.82
2018-04-24T11:46:59.122Z,98524.30
2018-04-24T11:49:26.600Z,98526.65
2018-04-24T11:51:54.084Z,98519.53
2018-04-24T11:54:21.553Z,98522.76
2018-04-24T11:56:49.069Z,98512.25
2018-04-24T11:59:16.531Z,98517.47
2018-04-24T12:01:44.096Z,98506.95
2018-04-24T12:04:11.596Z,98510.14
2018-04-24T12:06:39.079Z,98508.74
2018-04-24T12:09:06.625Z,98503.36
2018-04-24T12:11:34.137Z,98512.66
2018-04-24T12:14:01.607Z,98502.68
2018-04-24T12:16:29.110Z,98504.09
2018-04-24T12:18:56.711Z,98495.05
2018-04-24T12:21:24.218Z,98500.17
2018-04-24T12:23:52.573Z,98491.02
2018-04-24T12:26:20.083Z,98504.66
2018-04-24T12:28:47.549Z,98500.73
2018-04-24T12:31:15.058Z,98501.89
2018-04-24T12:33:42.545Z,98497.48
2018-04-24T12:36:10.030Z,98492.54
2018-04-24T12:38:37.539Z,98487.02
2018-04-24T12:41:05.010Z,98488.81
2018-04-24T12:43:32.499Z,98489.91
2018-04-24T12:46:00.209Z,98486.53
2018-04-24T12:48:27.697Z,98478.83
2018-04-24T12:50:55.205Z,98471.98
2018-04-24T12:53:22.820Z,98474.37
2018-04-24T12:55:50.333Z,98480.25
2018-04-24T12:58:17.797Z,98468.70
2018-04-24T13:00:45.302Z,98470.48
2018-04-24T13:03:12.774Z,98466.55
2018-04-24T13:05:40.259Z,98452.92
2018-04-24T13:08:07.797Z,98462.30
2018-04-24T13:10:35.299Z,98463.84
2018-04-24T13:13:02.828Z,98457.19
2018-04-24T13:15:30.313Z,98452.11
2018-04-24T13:17:57.798Z,98460.85
2018-04-24T13:20:25.262Z,98460.89
2018-04-24T13:22:53.436Z,98451.35
2018-04-24T13:25:21.158Z,98450.02
2018-04-24T13:30:22.695Z,98438.03
2018-04-24T13:32:50.171Z,98439.38
2018-04-24T13:35:17.725Z,98434.62
2018-04-24T13:37:45.350Z,98431.95
2018-04-24T13:40:12.840Z,98422.64
2018-04-24T13:42:40.317Z,98425.87
2018-04-24T13:45:07.807Z,98424.89
2018-04-24T13:47:35.261Z,98423.77
2018-04-24T13:50:02.737Z,98423.64
2018-04-24T13:52:30.249Z,98422.16
2018-04-24T13:54:57.738Z,98411.98
2018-04-24T13:57:25.207Z,98412.42
2018-04-24T13:59:52.697Z,98405.61
2018-04-24T14:02:20.153Z,98401.45
2018-04-24T14:04:47.628Z,98405.39
2018-04-24T14:07:15.140Z,98394.28
2018-04-24T14:09:42.672Z,98394.80
2018-04-24T14:12:10.168Z,98393.95
2018-04-24T14:14:37.651Z,98387.17
2018-04-24T14:17:05.138Z,98381.64
2018-04-24T14:19:32.621Z,98384.58
2018-04-24T14:22:00.098Z,98370.09
2018-04-24T14:24:27.785Z,98366.56
2018-04-24T14:27:00.878Z,98365.69
2018-04-24T14:29:29.028Z,98365.22
2018-04-24T14:31:56.518Z,98363.75
2018-04-24T14:34:24.064Z,98360.19
2018-04-24T14:36:51.549Z,98358.46
2018-04-24T14:39:18.990Z,98356.37
2018-04-24T14:41:46.468Z,98354.98
2018-04-24T14:44:14.066Z,98345.63
2018-04-24T14:46:41.544Z,98342.92
2018-04-24T14:49:09.030Z,98336.70
2018-04-24T14:51:36.571Z,98331.59
2018-04-24T14:54:04.064Z,98324.52
2018-04-24T14:56:31.567Z,98323.05
2018-04-24T14:58:59.130Z,98314.63
2018-04-24T15:01:26.623Z,98315.46
2018-04-24T15:03:54.087Z,98312.48
2018-04-24T15:06:21.569Z,98304.19
2018-04-24T15:08:49.108Z,98301.63
2018-04-24T15:11:16.568Z,98296.02
2018-04-24T15:13:44.116Z,98300.94
2018-04-24T15:16:11.608Z,98302.96
2018-04-24T15:18:39.575Z,98298.62
2018-04-24T15:21:07.047Z,98293.92
2018-04-24T15:23:34.547Z,98293.87
2018-04-24T15:26:02.087Z,98291.92
2018-04-24T15:28:29.557Z,98285.87
2018-04-24T15:30:57.034Z,98288.88
2018-04-24T15:33:24.500Z,98285.54
2018-04-24T15:35:51.974Z,98282.11
2018-04-24T15:38:19.622Z,98274.87
2018-04-24T15:40:47.107Z,98270.06
2018-04-24T15:43:14.585Z,98268.23
2018-04-24T15:45:42.055Z,98268.00
2018-04-24T15:48:09.529Z,98274.86
2018-04-24T15:50:37.024Z,98270.13
2018-04-24T15:53:04.710Z,98260.28
2018-04-24T15:55:32.301Z,98251.97
2018-04-24T15:57:59.769Z,98259.03
2018-04-24T16:00:27.431Z,98261.05
2018-04-24T16:02:54.998Z,98259.04
2018-04-24T16:05:22.402Z,98253.00
2018-04-24T16:07:49.928Z,98256.83
2018-04-24T16:10:17.398Z,98249.10
2018-04-24T16:12:45.027Z,98247.30
2018-04-24T16:15:12.656Z,98246.89
2018-04-24T16:17:40.622Z,98240.23
2018-04-24T16:20:08.144Z,98237.25
2018-04-24T16:22:35.623Z,98229.68
2018-04-24T16:25:03.110Z,98232.37
2018-04-24T16:27:30.703Z,98232.48
2018-04-24T16:29:58.249Z,98230.55
2018-04-24T16:32:25.691Z,98222.23
2018-04-24T16:34:53.318Z,98224.63
2018-04-24T16:37:20.801Z,98231.84
2018-04-24T16:39:48.300Z,98231.02
2018-04-24T16:42:15.987Z,98233.30
2018-04-24T16:44:43.504Z,98225.94
2018-04-24T16:47:10.980Z,98217.63
2018-04-24T16:49:38.495Z,98221.50
2018-04-24T16:52:05.967Z,98220.36
2018-04-24T16:54:33.635Z,98222.20
2018-04-24T16:57:01.104Z,98223.32
2018-04-24T16:59:28.581Z,98219.09
2018-04-24T17:01:56.054Z,98216.42
2018-04-24T17:04:23.531Z,98215.40
2018-04-24T17:06:51.137Z,98215.84
2018-04-24T17:09:18.604Z,98216.64
2018-04-24T17:11:46.087Z,98223.34
2018-04-24T17:14:13.654Z,98222.23
2018-04-24T17:16:41.158Z,98227.48
2018-04-24T17:19:08.636Z,98218.37
2018-04-24T17:21:36.107Z,98221.44
2018-04-24T17:24:03.644Z,98213.83
2018-04-24T17:26:31.234Z,98217.75
2018-04-24T17:28:58.776Z,98223.73
2018-04-24T17:31:26.271Z,98223.95
2018-04-24T17:33:53.810Z,98221.69
2018-04-24T17:36:21.390Z,98229.84
2018-04-24T17:38:48.936Z,98227.48
2018-04-24T17:41:16.418Z,98229.03
2018-04-24T17:43:43.878Z,98226.00
2018-04-24T17:46:11.388Z,98226.13
2018-04-24T17:48:39.460Z,98223.52
2018-04-24T17:51:07.205Z,98223.69
2018-04-24T17:53:34.720Z,98223.83
2018-04-24T17:56:02.197Z,98222.00
2018-04-24T17:58:29.755Z,98224.75
2018-04-24T18:00:57.222Z,98225.51
2018-04-24T18:03:24.726Z,98222.05
2018-04-24T18:05:52.265Z,98223.82
2018-04-24T18:08:19.718Z,98219.73
2018-04-24T18:10:47.231Z,98223.25
2018-04-24T18:13:14.814Z,98232.18
2018-04-24T18:15:42.319Z,98226.80
2018-04-24T18:18:09.826Z,98223.88
2018-04-24T18:20:37.529Z,98227.56
2018-04-24T18:23:05.675Z,98226.05
2018-04-24T18:25:33.216Z,98224.33
2018-04-24T18:28:00.687Z,98225.22
2018-04-24T18:30:28.160Z,98225.14
2018-04-24T18:32:55.666Z,98229.77
2018-04-24T18:35:23.318Z,98226.76
2018-04-24T18:37:57.589Z,98224.02
2018-04-24T18:40:25.131Z,98220.62
2018-04-24T18:42:52.879Z,98227.55
2018-04-24T18:45:20.484Z,98231.91
2018-04-24T18:47:49.129Z,98227.56
2018-04-24T18:50:17.978Z,98232.36
2018-04-24T18:52:45.662Z,98228.33
2018-04-24T18:55:13.240Z,98230.68
2018-04-24T18:57:40.983Z,98240.52
2018-04-24T19:00:08.492Z,98238.84
2018-04-24T19:02:35.978Z,98235.71
2018-04-24T19:05:03.815Z,98235.31
2018-04-24T19:07:32.045Z,98243.13
2018-04-24T19:09:59.681Z,98237.44
2018-04-24T19:12:27.475Z,98236.79
2018-04-24T19:14:55.441Z,98233.97
2018-04-24T19:17:23.073Z,98239.44
2018-04-24T19:19:50.994Z,98239.75
2018-04-24T19:22:18.554Z,98241.57
2018-04-24T19:24:51.821Z,98234.93
2018-04-24T19:27:19.322Z,98228.80
2018-04-24T19:29:47.205Z,98234.58
2018-04-24T19:32:20.697Z,98238.48
2018-04-24T19:34:48.252Z,98232.98
2018-04-24T19:37:15.856Z,98231.71
2018-04-24T19:39:49.195Z,98231.02
2018-04-24T19:42:16.821Z,98230.00
2018-04-24T19:44:44.383Z,98229.28
2018-04-24T19:47:11.886Z,98240.46
2018-04-24T19:49:45.263Z,98225.08
2018-04-24T19:52:12.885Z,98226.25
2018-04-24T19:54:46.058Z,98228.44
2018-04-24T19:57:13.976Z,98225.94
2018-04-24T19:59:41.699Z,98228.44
2018-04-24T20:02:09.421Z,98229.41
2018-04-24T20:04:36.976Z,98225.28
2018-04-24T20:07:04.671Z,98231.08
2018-04-24T20:09:32.707Z,98226.77
2018-04-24T20:12:00.227Z,98222.77
2018-04-24T20:14:27.890Z,98223.25
2018-04-24T20:16:55.465Z,98219.72
2018-04-24T20:19:23.004Z,98226.97
2018-04-24T20:21:50.669Z,98222.13
2018-04-24T20:24:19.879Z,98228.97
2018-04-24T20:26:47.434Z,98224.67
2018-04-24T20:29:14.976Z,98224.97
2018-04-24T20:31:42.455Z,98218.72
2018-04-24T20:34:09.988Z,98223.58
2018-04-24T20:36:38.883Z,98218.95
2018-04-24T20:39:06.493Z,98217.75
2018-04-24T20:41:34.198Z,98221.44
2018-04-24T20:44:01.894Z,98222.97
2018-04-24T20:46:29.586Z,98218.30
2018-04-24T20:48:57.602Z,98221.89
2018-04-24T20:51:25.215Z,98220.78
2018-04-24T20:53:52.717Z,98212.05
2018-04-24T20:56:20.271Z,98209.25
2018-04-24T20:58:47.796Z,98207.64
2018-04-24T21:01:15.299Z,98212.25
2018-04-24T21:03:42.894Z,98205.16
2018-04-24T21:06:10.473Z,98200.86
2018-04-24T21:08:39.059Z,98201.97
2018-04-24T21:11:06.559Z,98202.56
2018-04-24T21:13:34.049Z,98204.74
2018-04-24T21:16:01.752Z,98209.84
2018-04-24T21:18:29.387Z,98208.97
2018-04-24T21:20:57.003Z,98204.31
2018-04-24T21:23:24.521Z,98196.91
2018-04-24T21:25:52.098Z,98204.23
2018-04-24T21:28:19.800Z,98203.84
2018-04-24T21:30:47.366Z,98202.98
2018-04-24T21:33:14.858Z,98200.87
2018-04-24T21:35:42.360Z,98198.60
2018-04-24T21:38:09.848Z,98196.78
2018-04-24T21:40:37.337Z,98198.14
2018-04-24T21:43:04.917Z,98196.42
2018-04-24T21:45:32.710Z,98190.72
2018-04-24T21:48:00.179Z,98195.77
2018-04-24T21:50:27.666Z,98187.68
2018-04-24T21:52:55.147Z,98187.92
2018-04-24T21:55:22.651Z,98183.61
2018-04-24T21:57:50.135Z,98181.87
2018-04-24T22:00:17.590Z,98177.94
2018-04-24T22:02:45.138Z,98178.02
2018-04-24T22:05:12.632Z,98176.34
2018-04-24T22:07:40.104Z,98177.05
2018-04-24T22:10:07.577Z,98173.88
2018-04-24T22:12:35.061Z,98170.02
2018-04-24T22:15:02.530Z,98170.77
2018-04-24T22:17:30.018Z,98168.43
2018-04-24T22:19:57.507Z,98166.58
2018-04-24T22:22:24.978Z,98166.52
2018-04-24T22:24:52.489Z,98162.06
2018-04-24T22:27:19.970Z,98154.08
2018-04-24T22:29:47.445Z,98155.31
2018-04-24T22:32:14.929Z,98153.53
2018-04-24T22:34:42.419Z,98157.25
2018-04-24T22:37:09.900Z,98149.13
2018-04-24T22:39:37.440Z,98151.38
2018-04-24T22:42:04.913Z,98159.58
2018-04-24T22:44:32.384Z,98157.19
2018-04-24T22:46:59.860Z,98159.47
2018-04-24T22:49:27.322Z,98171.92
2018-04-24T22:51:54.824Z,98166.63
2018-04-24T22:54:22.301Z,98170.45
2018-04-24T22:56:49.753Z,98168.09
2018-04-24T22:59:17.240Z,98172.13
2018-04-24T23:01:44.762Z,98170.53
2018-04-24T23:04:12.231Z,98165.50
2018-04-24T23:06:39.729Z,98169.78
2018-04-24T23:09:07.213Z,98166.20
2018-04-24T23:11:46.482Z,98159.48
2018-04-24T23:14:25.985Z,98161.61
2018-04-24T23:17:05.347Z,98159.43
2018-04-24T23:19:44.680Z,98157.80
2018-04-24T23:25:08.372Z,98159.96
2018-04-24T23:27:35.851Z,98159.93
2018-04-24T23:30:03.337Z,98152.89
2018-04-24T23:32:30.828Z,98154.19
2018-04-24T23:34:58.316Z,98154.93
2018-04-24T23:37:25.819Z,98151.97
2018-04-24T23:39:53.414Z,98148.32
2018-04-24T23:42:20.871Z,98152.75
2018-04-24T23:47:09.468Z,98147.51
2018-04-24T23:49:36.956Z,98151.45
2018-04-24T23:52:04.414Z,98146.95
2018-04-24T23:54:31.899Z,98147.74
2018-04-24T23:56:59.411Z,98146.73
2018-04-24T23:59:27.008Z,98141.05
